Time;durP1;ratioP1;P1;durP2;ratioP2;P2;SDS_P1;SDS_P2;PMS_P1;PMS_P2;Temp;Humidity;BMP_temperature;BMP_pressure;BME280_temperature;BME280_humidity;BME280_pressure;Samples;Min_cycle;Max_cycle;Signal;HPM_P1;HPM_P2
2022/11/26 00:01:54;;;;;;;0.13;0.13;;;;;;;3.28;100.00;103096.09;10441181;28;20045;-75
2022/11/26 00:06:55;;;;;;;0.85;0.80;;;;;;;3.08;100.00;103100.25;10458778;28;20136;-77
2022/11/26 00:11:57;;;;;;;1.25;0.45;;;;;;;2.98;100.00;103105.25;10458691;28;20504;-77
2022/11/26 00:16:59;;;;;;;0.00;0.00;;;;;;;3.24;100.00;103117.84;10440713;28;20053;-75
2022/11/26 00:22:01;;;;;;;0.10;0.10;;;;;;;3.23;100.00;103123.69;10424118;28;20492;-78
2022/11/26 00:27:02;;;;;;;0.30;0.20;;;;;;;3.30;100.00;103138.78;10439890;28;20103;-77
2022/11/26 00:32:14;;;;;;;0.17;0.17;;;;;;;3.23;100.00;103143.19;10439833;28;20033;-77
2022/11/26 00:37:32;;;;;;;1.45;0.43;;;;;;;2.90;100.00;103141.84;10439446;28;20087;-77
2022/11/26 00:42:34;;;;;;;0.47;0.30;;;;;;;2.88;100.00;103144.25;10439542;28;20079;-78
2022/11/26 00:47:36;;;;;;;0.20;0.20;;;;;;;2.97;100.00;103165.50;10457108;28;20048;-79
2022/11/26 00:52:37;;;;;;;0.15;0.15;;;;;;;3.13;100.00;103167.78;10439302;28;20083;-79
2022/11/26 00:57:40;;;;;;;0.52;0.52;;;;;;;3.29;100.00;103172.66;10456328;28;20508;-79
2022/11/26 01:02:42;;;;;;;1.00;0.90;;;;;;;3.10;100.00;103180.22;10439581;28;20087;-78
2022/11/26 01:07:44;;;;;;;0.10;0.10;;;;;;;3.06;100.00;103185.81;10456766;28;20041;-78
2022/11/26 01:12:46;;;;;;;0.00;0.00;;;;;;;3.18;100.00;103184.41;10457915;28;20044;-79
2022/11/26 01:17:49;;;;;;;0.68;0.35;;;;;;;3.31;100.00;103194.06;10438270;28;20045;-78
2022/11/26 01:22:58;;;;;;;0.05;0.05;;;;;;;3.22;100.00;103194.88;10422350;28;20053;-78
2022/11/26 01:28:01;;;;;;;0.73;0.73;;;;;;;3.43;100.00;103201.97;10456442;28;20527;-78
2022/11/26 01:33:02;;;;;;;0.35;0.20;;;;;;;3.39;100.00;103197.31;10446890;28;20045;-78
2022/11/26 01:38:04;;;;;;;0.75;0.75;;;;;;;3.39;100.00;103199.88;10446927;28;20049;-78
2022/11/26 01:43:25;;;;;;;0.75;0.43;;;;;;;3.40;100.00;103199.13;10446734;28;20049;-77
2022/11/26 01:48:31;;;;;;;0.10;0.10;;;;;;;3.18;100.00;103206.44;10446565;28;20041;-78
2022/11/26 01:53:55;;;;;;;0.15;0.15;;;;;;;3.32;100.00;103210.25;10446546;28;20070;-78
2022/11/26 02:06:12;;;;;;;0.30;0.30;;;;;;;2.72;100.00;103203.00;10463968;28;20032;-77
2022/11/26 02:11:17;;;;;;;7.95;1.63;;;;;;;3.03;100.00;103199.91;10463905;28;20037;-78
2022/11/26 02:16:24;;;;;;;0.75;0.75;;;;;;;2.90;100.00;103205.50;10430315;28;20095;-79
2022/11/26 02:21:27;;;;;;;0.98;0.88;;;;;;;2.71;100.00;103206.31;10460057;28;20045;-79
2022/11/26 02:27:06;;;;;;;0.82;0.73;;;;;;;2.59;100.00;103212.75;10445004;28;20107;-77
2022/11/26 02:32:17;;;;;;;4.97;1.63;;;;;;;2.83;100.00;103222.75;10441871;28;20053;-78
2022/11/26 02:37:30;;;;;;;0.98;0.60;;;;;;;2.91;100.00;103225.13;10445025;28;20489;-78
2022/11/26 02:42:33;;;;;;;1.42;1.20;;;;;;;3.08;100.00;103230.16;10443575;28;20053;-78
2022/11/26 02:47:38;;;;;;;0.65;0.52;;;;;;;2.93;100.00;103228.72;10444176;28;20057;-79
2022/11/26 02:52:41;;;;;;;0.35;0.25;;;;;;;2.91;100.00;103227.66;10437928;28;20068;-78
2022/11/26 02:57:49;;;;;;;1.90;1.15;;;;;;;2.70;100.00;103229.97;10423124;28;20045;-78
2022/11/26 03:03:00;;;;;;;1.38;0.65;;;;;;;2.46;100.00;103234.50;10461518;28;20127;-78
2022/11/26 03:08:04;;;;;;;1.42;1.08;;;;;;;2.32;100.00;103235.69;10460499;28;20052;-78
2022/11/26 03:13:06;;;;;;;0.85;0.77;;;;;;;2.41;100.00;103244.97;10443660;28;20589;-78
2022/11/26 03:18:07;;;;;;;1.02;0.60;;;;;;;2.50;100.00;103251.84;10443344;28;20563;-79
2022/11/26 03:23:09;;;;;;;1.13;0.98;;;;;;;2.69;100.00;103263.81;10443037;28;20045;-78
2022/11/26 03:28:11;;;;;;;0.80;0.80;;;;;;;2.69;100.00;103261.25;10459519;28;20087;-79
2022/11/26 03:33:12;;;;;;;1.85;0.95;;;;;;;2.38;100.00;103255.75;10426958;28;20053;-79
2022/11/26 03:38:15;;;;;;;1.55;1.40;;;;;;;2.42;100.00;103262.91;10462026;28;20048;-79
2022/11/26 03:43:16;;;;;;;1.17;0.55;;;;;;;2.32;100.00;103272.97;10443475;28;20044;-79
2022/11/26 03:48:18;;;;;;;0.68;0.60;;;;;;;2.29;100.00;103286.28;10460586;28;20520;-78
2022/11/26 03:53:20;;;;;;;1.33;0.68;;;;;;;2.18;100.00;103281.78;10459916;28;20051;-78
2022/11/26 03:58:21;;;;;;;14.43;0.75;;;;;;;2.24;100.00;103294.22;10442472;28;20068;-78
2022/11/26 04:03:23;;;;;;;0.43;0.43;;;;;;;2.35;100.00;103296.13;10459595;28;20492;-77
2022/11/26 04:08:25;;;;;;;1.67;1.25;;;;;;;2.27;100.00;103291.97;10459211;28;20060;-79
2022/11/26 04:13:26;;;;;;;1.65;1.27;;;;;;;2.24;100.00;103296.75;10461896;28;20400;-78
2022/11/26 04:18:28;;;;;;;0.85;0.85;;;;;;;2.16;100.00;103291.81;10428515;28;20079;-79
2022/11/26 04:23:29;;;;;;;0.32;0.32;;;;;;;2.26;100.00;103305.44;10443307;28;20133;-79
2022/11/26 04:28:31;;;;;;;1.33;0.95;;;;;;;2.26;100.00;103310.53;10447675;28;20057;-80
2022/11/26 04:33:33;;;;;;;0.82;0.82;;;;;;;2.33;100.00;103315.47;10435410;28;20053;-78
2022/11/26 04:38:36;;;;;;;5.20;1.98;;;;;;;2.29;100.00;103321.00;10439554;28;20049;-79
2022/11/26 04:43:37;;;;;;;4.80;1.05;;;;;;;2.30;100.00;103325.31;10439191;28;20045;-79
2022/11/26 04:48:39;;;;;;;1.38;0.63;;;;;;;2.10;100.00;103314.09;10456248;28;20045;-79
2022/11/26 04:53:41;;;;;;;0.68;0.55;;;;;;;2.08;100.00;103315.59;10439015;28;20128;-79
2022/11/26 04:58:42;;;;;;;1.02;0.85;;;;;;;2.24;100.00;103327.28;10453795;28;20072;-79
2022/11/26 05:03:45;;;;;;;0.70;0.28;;;;;;;2.22;100.00;103330.56;10412572;28;20503;-80
2022/11/26 05:08:46;;;;;;;1.30;0.88;;;;;;;2.17;100.00;103331.75;10437737;28;20037;-80
2022/11/26 05:13:48;;;;;;;0.70;0.68;;;;;;;2.19;100.00;103339.53;10437068;28;20124;-79
2022/11/26 05:18:49;;;;;;;1.60;1.02;;;;;;;2.04;100.00;103338.91;10454744;28;20045;-79
2022/11/26 05:23:51;;;;;;;3.88;2.25;;;;;;;2.08;100.00;103333.38;10450585;28;20088;-79
2022/11/26 05:28:53;;;;;;;3.10;1.60;;;;;;;2.03;100.00;103347.28;10437563;28;20048;-79
2022/11/26 05:33:55;;;;;;;2.42;1.38;;;;;;;2.13;100.00;103360.16;10422481;28;20106;-80
2022/11/26 05:38:58;;;;;;;0.88;0.77;;;;;;;2.06;100.00;103362.84;10421675;28;20045;-79
2022/11/26 05:44:00;;;;;;;6.30;2.20;;;;;;;2.17;100.00;103372.44;10438179;28;20049;-80
2022/11/26 05:49:01;;;;;;;1.25;0.90;;;;;;;2.15;100.00;103368.84;10437868;28;20473;-79
2022/11/26 05:54:03;;;;;;;1.00;0.93;;;;;;;2.32;100.00;103374.72;10459263;28;20037;-79
2022/11/26 05:59:05;;;;;;;0.70;0.60;;;;;;;2.37;100.00;103378.63;10433776;28;20029;-79
2022/11/26 06:04:06;;;;;;;2.13;1.73;;;;;;;2.31;100.00;103385.66;10429605;28;20045;-81
2022/11/26 06:09:09;;;;;;;0.80;0.80;;;;;;;2.37;100.00;103387.16;10422979;28;20041;-79
2022/11/26 06:14:11;;;;;;;1.60;0.63;;;;;;;2.42;100.00;103389.25;10437762;28;20049;-79
2022/11/26 06:19:12;;;;;;;0.50;0.50;;;;;;;2.48;100.00;103385.69;10428779;28;20061;-76
2022/11/26 06:24:14;;;;;;;0.57;0.55;;;;;;;2.56;100.00;103383.88;10450442;28;20076;-76
2022/11/26 06:29:16;;;;;;;2.30;1.40;;;;;;;2.52;100.00;103382.69;10430014;28;20484;-77
2022/11/26 06:34:17;;;;;;;0.68;0.45;;;;;;;2.43;100.00;103386.84;10444843;28;20061;-76
2022/11/26 06:39:19;;;;;;;0.47;0.43;;;;;;;2.48;100.00;103385.69;10444500;28;20492;-76
2022/11/26 06:44:20;;;;;;;1.98;0.40;;;;;;;2.41;100.00;103392.53;10427722;28;20075;-79
2022/11/26 06:49:22;;;;;;;0.90;0.85;;;;;;;2.35;100.00;103390.28;10443088;28;20144;-80
2022/11/26 06:54:24;;;;;;;2.38;1.42;;;;;;;2.38;100.00;103398.22;10443670;28;20045;-79
2022/11/26 06:59:25;;;;;;;0.55;0.55;;;;;;;2.32;100.00;103408.69;10432375;28;20480;-80
2022/11/26 07:04:29;;;;;;;0.52;0.45;;;;;;;2.24;100.00;103423.94;10443490;28;20075;-80
2022/11/26 07:09:30;;;;;;;1.95;1.73;;;;;;;2.15;100.00;103429.00;10420154;28;20087;-80
2022/11/26 07:14:32;;;;;;;1.77;1.27;;;;;;;2.15;100.00;103444.25;10422118;28;20096;-79
2022/11/26 07:19:34;;;;;;;1.30;1.00;;;;;;;2.35;100.00;103448.78;10442403;28;20041;-80
2022/11/26 07:24:35;;;;;;;3.50;2.70;;;;;;;2.36;100.00;103455.69;10442486;28;20052;-80
2022/11/26 07:29:37;;;;;;;3.40;1.23;;;;;;;2.63;100.00;103469.38;10457829;28;20041;-79
2022/11/26 07:34:39;;;;;;;1.10;0.68;;;;;;;2.70;100.00;103462.50;10441974;28;20083;-79
2022/11/26 07:39:41;;;;;;;3.10;2.50;;;;;;;2.73;100.00;103453.38;10411796;28;20037;-77
2022/11/26 07:44:43;;;;;;;1.17;0.40;;;;;;;2.69;100.00;103454.72;10442258;28;20128;-76
2022/11/26 07:49:44;;;;;;;1.35;1.25;;;;;;;2.87;100.00;103467.47;10449976;28;20124;-78
2022/11/26 07:54:46;;;;;;;2.22;1.05;;;;;;;2.93;100.00;103483.34;10441603;28;20057;-77
2022/11/26 08:05:55;;;;;;;1.30;1.08;;;;;;;3.06;100.00;103486.34;10451016;28;20488;-80
2022/11/26 08:10:56;;;;;;;1.13;0.77;;;;;;;3.07;100.00;103492.34;10441208;28;20040;-80
2022/11/26 08:15:58;;;;;;;4.45;1.75;;;;;;;3.17;100.00;103500.16;10460322;28;20056;-80
2022/11/26 08:21:00;;;;;;;1.17;1.00;;;;;;;3.22;100.00;103503.16;10447018;28;20052;-80
2022/11/26 08:26:07;;;;;;;2.35;1.35;;;;;;;3.23;100.00;103508.38;10440834;28;20049;-80
2022/11/26 08:31:28;;;;;;;0.77;0.65;;;;;;;3.29;100.00;103515.72;10424377;28;20048;-80
2022/11/26 08:36:30;;;;;;;1.02;0.88;;;;;;;3.36;100.00;103515.59;10458119;28;20048;-80
2022/11/26 08:41:32;;;;;;;1.55;1.05;;;;;;;3.41;100.00;103511.81;10438972;28;20052;-81
2022/11/26 08:46:36;;;;;;;1.05;0.75;;;;;;;3.54;100.00;103519.00;10456063;28;20041;-80
2022/11/26 08:51:38;;;;;;;6.03;1.17;;;;;;;3.72;100.00;103524.97;10457160;28;20047;-80
2022/11/26 08:56:39;;;;;;;1.42;0.98;;;;;;;3.81;100.00;103536.06;10465471;28;20063;-80
2022/11/26 09:01:41;;;;;;;2.35;1.40;;;;;;;3.92;100.00;103546.38;10442090;28;20190;-80
2022/11/26 09:06:43;;;;;;;1.58;0.57;;;;;;;4.14;100.00;103531.47;10439222;28;20095;-79
2022/11/26 09:11:49;;;;;;;3.28;1.52;;;;;;;4.27;100.00;103543.75;10456583;28;20151;-80
2022/11/26 09:16:55;;;;;;;2.15;1.45;;;;;;;4.23;100.00;103542.56;10455979;28;20377;-77
2022/11/26 09:21:57;;;;;;;0.25;0.25;;;;;;;4.51;100.00;103554.44;10456434;28;20051;-77
2022/11/26 09:26:58;;;;;;;3.45;1.65;;;;;;;4.67;100.00;103561.91;10439166;28;20080;-76
2022/11/26 09:32:09;;;;;;;0.63;0.63;;;;;;;5.01;100.00;103571.03;10440672;28;20032;-79
2022/11/26 09:37:31;;;;;;;2.28;2.08;;;;;;;5.41;100.00;103573.72;10458766;28;20041;-79
2022/11/26 09:42:39;;;;;;;3.30;1.35;;;;;;;5.48;100.00;103591.41;10433686;28;20044;-79
2022/11/26 09:47:44;;;;;;;4.43;1.08;;;;;;;5.48;100.00;103600.72;10467105;28;20049;-77
2022/11/26 09:53:00;;;;;;;2.42;1.08;;;;;;;5.40;100.00;103593.28;10448728;28;20094;-79
2022/11/26 09:58:21;;;;;;;0.47;0.47;;;;;;;5.51;100.00;103611.25;10445266;28;20037;-79
2022/11/26 10:03:36;;;;;;;6.25;0.77;;;;;;;5.42;100.00;103592.50;10472557;28;20472;-80
2022/11/26 10:09:25;;;;;;;1.58;1.02;;;;;;;5.53;100.00;103589.28;10443223;28;20069;-81
2022/11/26 10:14:46;;;;;;;1.88;1.17;;;;;;;5.55;100.00;103597.97;10446597;28;20508;-79
2022/11/26 10:20:20;;;;;;;1.63;1.13;;;;;;;5.57;100.00;103591.34;10434795;28;20041;-79
2022/11/26 10:25:27;;;;;;;0.43;0.35;;;;;;;5.73;100.00;103593.63;10459865;28;20044;-80
2022/11/26 10:30:29;;;;;;;0.40;0.32;;;;;;;5.83;100.00;103597.91;10444523;28;20060;-79
2022/11/26 10:35:32;;;;;;;0.70;0.60;;;;;;;5.79;100.00;103588.13;10445084;28;20167;-79
2022/11/26 10:40:33;;;;;;;1.95;0.50;;;;;;;5.93;100.00;103587.69;10452116;28;20076;-79
2022/11/26 10:45:41;;;;;;;8.27;1.83;;;;;;;6.07;100.00;103580.38;10443779;28;20063;-78
2022/11/26 10:50:58;;;;;;;0.73;0.63;;;;;;;6.10;100.00;103580.63;10443754;28;20133;-80
2022/11/26 10:56:04;;;;;;;2.85;0.80;;;;;;;6.23;100.00;103583.50;10460281;28;20041;-79
2022/11/26 11:01:07;;;;;;;1.50;0.70;;;;;;;6.26;100.00;103573.53;10460295;28;20136;-79
2022/11/26 11:06:35;;;;;;;1.20;0.82;;;;;;;6.13;100.00;103563.00;10448366;28;20052;-81
2022/11/26 11:11:36;;;;;;;0.40;0.38;;;;;;;6.53;100.00;103563.84;10456817;28;20091;-79
2022/11/26 11:16:44;;;;;;;0.82;0.80;;;;;;;6.41;100.00;103547.44;10462193;28;20102;-79
2022/11/26 11:21:49;;;;;;;1.20;1.05;;;;;;;6.54;100.00;103545.16;10428796;28;20037;-79
2022/11/26 11:26:54;;;;;;;0.57;0.43;;;;;;;6.77;100.00;103544.56;10462529;28;20106;-78
2022/11/26 11:31:56;;;;;;;0.50;0.45;;;;;;;6.63;100.00;103535.69;10443059;28;20064;-78
2022/11/26 11:37:02;;;;;;;1.40;1.00;;;;;;;6.80;100.00;103518.28;10426040;28;20046;-80
2022/11/26 11:42:20;;;;;;;4.68;1.65;;;;;;;6.97;100.00;103497.50;10447450;28;20044;-78
2022/11/26 11:47:49;;;;;;;0.22;0.22;;;;;;;7.02;100.00;103456.88;10455384;28;20052;-78
2022/11/26 11:52:54;;;;;;;2.03;1.25;;;;;;;7.27;100.00;103441.81;10437927;28;20523;-78
2022/11/26 11:58:11;;;;;;;2.10;1.00;;;;;;;7.30;100.00;103415.50;10441001;28;20519;-78
2022/11/26 12:03:45;;;;;;;0.68;0.60;;;;;;;7.32;100.00;103407.94;10455011;28;20098;-80
2022/11/26 12:09:08;;;;;;;1.02;0.55;;;;;;;7.42;100.00;103400.19;10458824;28;20093;-78
2022/11/26 12:14:33;;;;;;;0.70;0.60;;;;;;;7.49;100.00;103381.94;10446937;28;20049;-79
2022/11/26 12:19:44;;;;;;;1.58;1.48;;;;;;;7.53;100.00;103371.16;10449908;28;20435;-78
2022/11/26 12:24:59;;;;;;;1.50;0.70;;;;;;;7.68;100.00;103362.88;10451235;28;20496;-80
2022/11/26 12:30:11;;;;;;;1.80;0.55;;;;;;;7.65;100.00;103334.41;10441710;28;20081;-83
2022/11/26 12:35:35;;;;;;;3.97;2.00;;;;;;;7.64;100.00;103310.44;10450732;28;20053;-81
2022/11/26 12:40:44;;;;;;;2.33;0.85;;;;;;;7.63;100.00;103304.38;10454873;28;20059;-80
2022/11/26 12:46:01;;;;;;;8.93;0.65;;;;;;;7.81;100.00;103288.59;10494535;28;20056;-79
2022/11/26 12:51:33;;;;;;;3.45;0.60;;;;;;;8.03;100.00;103274.81;10439165;28;20036;-79
2022/11/26 12:56:47;;;;;;;2.42;2.22;;;;;;;8.40;100.00;103254.41;10452597;28;20044;-79
2022/11/26 13:01:52;;;;;;;3.42;2.08;;;;;;;8.45;100.00;103240.22;10452855;28;20049;-80
2022/11/26 13:07:15;;;;;;;2.40;1.20;;;;;;;8.21;100.00;103237.69;10470738;28;20447;-79
2022/11/26 13:12:41;;;;;;;2.28;1.85;;;;;;;8.21;100.00;103229.97;10430810;28;20564;-79
2022/11/26 13:17:46;;;;;;;0.60;0.60;;;;;;;8.18;100.00;103218.59;10438493;28;20496;-79
2022/11/26 13:23:10;;;;;;;0.77;0.57;;;;;;;8.17;100.00;103209.09;10422138;28;20439;-80
2022/11/26 13:28:31;;;;;;;1.75;0.52;;;;;;;8.37;100.00;103200.25;10433487;28;20416;-81
2022/11/26 13:34:05;;;;;;;3.80;1.40;;;;;;;8.76;100.00;103178.19;10433262;28;20045;-80
2022/11/26 13:39:28;;;;;;;0.28;0.20;;;;;;;8.72;100.00;103159.09;10450387;28;20698;-78
2022/11/26 13:44:59;;;;;;;1.15;0.88;;;;;;;8.92;100.00;103136.47;10450226;28;20048;-79
2022/11/26 13:50:27;;;;;;;2.35;2.15;;;;;;;8.68;100.00;103121.13;10457366;28;20049;-79
2022/11/26 13:55:35;;;;;;;0.55;0.55;;;;;;;8.66;100.00;103111.53;10460635;28;20041;-79
2022/11/26 14:00:37;;;;;;;0.38;0.25;;;;;;;8.57;100.00;103115.25;10451223;28;20557;-80
2022/11/26 14:05:47;;;;;;;1.65;0.77;;;;;;;8.57;100.00;103104.97;10451209;28;20033;-80
2022/11/26 14:10:49;;;;;;;3.80;1.80;;;;;;;8.49;100.00;103098.41;10459348;28;20077;-81
2022/11/26 14:16:08;;;;;;;0.47;0.30;;;;;;;8.46;100.00;103098.13;10447070;28;20094;-80
2022/11/26 14:21:11;;;;;;;3.10;0.60;;;;;;;8.45;100.00;103093.78;10463241;28;20071;-80
2022/11/26 14:26:33;;;;;;;1.05;0.73;;;;;;;8.48;100.00;103101.75;10437408;28;20037;-80
2022/11/26 14:31:40;;;;;;;1.83;0.50;;;;;;;8.50;100.00;103100.19;10465631;28;20104;-81
2022/11/26 14:36:54;;;;;;;0.75;0.75;;;;;;;8.50;100.00;103097.63;10416089;28;20053;-79
2022/11/26 14:42:02;;;;;;;0.40;0.20;;;;;;;8.50;100.00;103105.31;10427543;28;20084;-79
2022/11/26 14:47:15;;;;;;;1.70;0.55;;;;;;;8.50;100.00;103107.00;10440195;28;20496;-84
2022/11/26 14:52:27;;;;;;;0.35;0.35;;;;;;;8.45;100.00;103092.91;10427760;28;20093;-85
2022/11/26 14:57:46;;;;;;;0.55;0.40;;;;;;;8.44;100.00;103107.44;10433620;28;20094;-84
2022/11/26 15:02:48;;;;;;;1.17;0.95;;;;;;;8.41;100.00;103104.63;10416717;28;20071;-84
2022/11/26 15:07:58;;;;;;;24.80;1.25;;;;;;;8.38;100.00;103106.97;10456328;28;20043;-84
2022/11/26 15:13:10;;;;;;;0.75;0.65;;;;;;;8.33;100.00;103110.91;10432296;28;20524;-84
2022/11/26 15:18:20;;;;;;;1.98;1.15;;;;;;;8.22;100.00;103105.94;10451058;28;20140;-84
2022/11/26 15:23:46;;;;;;;0.32;0.32;;;;;;;8.20;100.00;103101.44;10480541;28;20806;-84
2022/11/26 15:28:48;;;;;;;4.70;0.95;;;;;;;8.09;100.00;103113.50;10426959;28;20053;-83
2022/11/26 15:33:50;;;;;;;0.17;0.15;;;;;;;8.09;100.00;103116.09;10443253;28;20052;-85
2022/11/26 15:39:05;;;;;;;0.38;0.38;;;;;;;7.90;100.00;103124.13;10430906;28;20057;-84
2022/11/26 15:44:20;;;;;;;4.82;1.80;;;;;;;7.94;100.00;103132.16;10432512;28;20037;-84
2022/11/26 15:49:33;;;;;;;3.05;2.33;;;;;;;7.82;100.00;103146.69;10440366;28;20103;-83
2022/11/26 15:54:38;;;;;;;3.63;2.17;;;;;;;7.69;100.00;103149.13;10414341;28;20099;-83
2022/11/26 16:00:22;;;;;;;0.60;0.50;;;;;;;7.60;100.00;103167.28;10437715;28;20073;-84
2022/11/26 16:05:38;;;;;;;1.77;1.05;;;;;;;7.49;100.00;103174.19;10458231;28;20079;-84
2022/11/26 16:10:40;;;;;;;1.35;1.02;;;;;;;7.40;100.00;103174.38;10432768;28;20404;-84
2022/11/26 16:16:03;;;;;;;1.77;1.05;;;;;;;7.42;100.00;103174.50;10448153;28;20059;-83
2022/11/26 16:21:14;;;;;;;1.13;1.02;;;;;;;7.27;100.00;103175.13;10425067;28;20041;-82
2022/11/26 16:26:19;;;;;;;0.95;0.70;;;;;;;7.17;100.00;103182.91;10411758;28;20127;-79
2022/11/26 16:31:21;;;;;;;1.42;0.75;;;;;;;7.06;100.00;103183.75;10440048;28;20090;-79
2022/11/26 16:36:27;;;;;;;0.40;0.40;;;;;;;7.10;100.00;103193.47;10426861;28;20049;-79
2022/11/26 16:41:28;;;;;;;1.92;0.95;;;;;;;7.07;100.00;103204.38;10439451;28;20041;-80
2022/11/26 16:46:30;;;;;;;1.15;0.63;;;;;;;7.10;100.00;103216.53;10438918;28;20049;-79
2022/11/26 16:51:32;;;;;;;1.73;1.27;;;;;;;7.16;100.00;103217.00;10424674;28;20045;-80
2022/11/26 16:56:37;;;;;;;0.25;0.25;;;;;;;7.14;100.00;103213.44;10438666;28;20053;-80
2022/11/26 17:01:39;;;;;;;1.45;0.57;;;;;;;7.10;100.00;103206.28;10423428;28;20045;-78
2022/11/26 17:06:42;;;;;;;1.70;0.75;;;;;;;6.98;100.00;103198.53;10435426;28;20037;-80
2022/11/26 17:11:44;;;;;;;0.30;0.30;;;;;;;6.84;100.00;103197.47;10415665;28;20049;-79
2022/11/26 17:16:45;;;;;;;0.45;0.28;;;;;;;6.88;100.00;103189.25;10437704;28;20049;-80
2022/11/26 17:21:47;;;;;;;0.30;0.30;;;;;;;6.98;100.00;103186.59;10438733;28;20061;-79
2022/11/26 17:26:48;;;;;;;2.92;1.67;;;;;;;6.91;100.00;103183.47;10456594;28;20049;-80
2022/11/26 17:31:50;;;;;;;0.50;0.50;;;;;;;6.77;100.00;103174.69;10439049;28;20041;-79
2022/11/26 17:36:57;;;;;;;1.13;0.63;;;;;;;6.67;100.00;103163.72;10422815;28;20044;-79
2022/11/26 17:41:58;;;;;;;0.82;0.68;;;;;;;6.78;100.00;103163.66;10476999;28;20045;-79
2022/11/26 17:47:01;;;;;;;0.85;0.60;;;;;;;6.82;100.00;103169.16;10451741;28;20051;-79
2022/11/26 17:52:17;;;;;;;0.70;0.70;;;;;;;6.58;100.00;103178.38;10431019;28;20503;-79
2022/11/26 17:57:19;;;;;;;1.75;0.73;;;;;;;6.67;100.00;103181.66;10438115;28;20107;-80
2022/11/26 18:03:11;;;;;;;0.20;0.20;;;;;;;6.47;100.00;103185.22;10438375;28;20075;-80
2022/11/26 18:08:12;;;;;;;0.25;0.25;;;;;;;6.30;100.00;103178.72;10438107;28;20064;-80
2022/11/26 18:13:14;;;;;;;0.13;0.03;;;;;;;6.40;100.00;103195.75;10407612;28;20046;-80
2022/11/26 18:18:15;;;;;;;0.52;0.52;;;;;;;6.69;100.00;103201.38;10456079;28;20044;-79
2022/11/26 18:23:17;;;;;;;1.48;1.10;;;;;;;6.65;100.00;103200.25;10462991;28;20500;-79
2022/11/26 18:28:19;;;;;;;1.70;1.33;;;;;;;6.49;100.00;103188.78;10428979;28;20049;-80
2022/11/26 18:33:20;;;;;;;1.00;0.90;;;;;;;6.29;100.00;103179.50;10445608;28;20053;-80
2022/11/26 18:38:27;;;;;;;0.52;0.40;;;;;;;6.29;100.00;103161.59;10445085;28;20053;-80
2022/11/26 18:44:32;;;;;;;1.40;1.30;;;;;;;6.28;100.00;103161.47;10421922;28;20041;-80
2022/11/26 18:49:33;;;;;;;3.70;0.60;;;;;;;6.31;100.00;103177.97;10444124;28;20496;-80
2022/11/26 18:54:35;;;;;;;3.00;1.88;;;;;;;6.13;100.00;103171.38;10444352;28;20052;-80
2022/11/26 18:59:36;;;;;;;1.48;0.98;;;;;;;6.13;100.00;103168.81;10420364;28;20569;-79
2022/11/26 19:04:39;;;;;;;1.95;1.42;;;;;;;6.14;100.00;103183.41;10443467;28;20041;-80
2022/11/26 19:09:40;;;;;;;2.08;1.88;;;;;;;6.01;100.00;103190.06;10443671;28;20041;-80
2022/11/26 19:14:43;;;;;;;1.23;0.88;;;;;;;5.83;100.00;103178.31;10443529;28;20136;-80
2022/11/26 19:19:44;;;;;;;1.27;0.73;;;;;;;5.61;100.00;103167.97;10461173;28;20037;-80
2022/11/26 19:24:47;;;;;;;2.60;0.70;;;;;;;5.53;100.00;103162.25;10460331;28;20080;-81
2022/11/26 19:29:48;;;;;;;1.73;1.17;;;;;;;5.68;100.00;103171.19;10442897;28;20496;-80
2022/11/26 19:34:50;;;;;;;8.35;0.38;;;;;;;5.70;100.00;103159.41;10426364;28;20045;-80
2022/11/26 19:39:52;;;;;;;0.43;0.15;;;;;;;5.78;100.00;103159.13;10426028;28;20080;-79
2022/11/26 19:44:53;;;;;;;0.73;0.38;;;;;;;5.83;100.00;103150.19;10429110;28;20045;-79
2022/11/26 19:49:55;;;;;;;0.20;0.20;;;;;;;5.85;100.00;103144.41;10442156;28;20400;-79
2022/11/26 19:54:57;;;;;;;0.60;0.52;;;;;;;5.82;100.00;103145.84;10441928;28;20069;-81
2022/11/26 19:59:58;;;;;;;2.13;1.58;;;;;;;5.72;100.00;103132.28;10470131;28;20500;-80
2022/11/26 20:05:00;;;;;;;2.00;1.83;;;;;;;5.71;100.00;103142.41;10441894;28;20049;-80
2022/11/26 20:10:02;;;;;;;0.30;0.30;;;;;;;5.59;100.00;103161.84;10453353;28;20041;-80
2022/11/26 20:15:04;;;;;;;0.30;0.30;;;;;;;5.55;100.00;103165.78;10441627;28;20076;-81
2022/11/26 20:20:06;;;;;;;1.55;0.30;;;;;;;5.49;100.00;103186.66;10424762;28;20156;-80
2022/11/26 20:25:12;;;;;;;0.60;0.57;;;;;;;5.50;100.00;103180.78;10441115;28;20037;-81
2022/11/26 20:30:14;;;;;;;1.35;0.73;;;;;;;5.46;100.00;103172.72;10455517;28;20068;-80
2022/11/26 20:35:18;;;;;;;1.23;0.95;;;;;;;5.45;100.00;103164.16;10450806;28;20072;-81
2022/11/26 20:40:20;;;;;;;1.42;0.55;;;;;;;5.49;100.00;103179.00;10423967;28;20488;-80
2022/11/26 20:45:21;;;;;;;1.35;1.20;;;;;;;5.53;100.00;103187.81;10440292;28;20048;-80
2022/11/26 20:50:23;;;;;;;0.10;0.10;;;;;;;5.60;100.00;103191.75;10423727;28;20143;-80
2022/11/26 20:55:25;;;;;;;1.10;0.50;;;;;;;5.56;100.00;103191.53;10423749;28;20041;-81
2022/11/26 21:00:26;;;;;;;0.10;0.10;;;;;;;5.62;100.00;103180.88;10423913;28;20056;-81
2022/11/26 21:05:28;;;;;;;9.25;0.82;;;;;;;5.74;100.00;103185.25;10416961;28;20042;-81
2022/11/26 21:10:30;;;;;;;1.90;0.85;;;;;;;5.74;100.00;103164.78;10385456;28;20099;-81
2022/11/26 21:15:31;;;;;;;1.17;0.70;;;;;;;5.67;100.00;103166.84;10455864;28;20482;-81
2022/11/26 21:20:33;;;;;;;0.85;0.65;;;;;;;5.75;100.00;103157.22;10456055;28;20120;-81
2022/11/26 21:25:38;;;;;;;2.75;1.38;;;;;;;5.79;100.00;103137.91;10456081;28;20045;-80
2022/11/26 21:30:41;;;;;;;3.83;0.75;;;;;;;5.79;100.00;103130.22;10454200;28;20400;-80
2022/11/26 21:35:42;;;;;;;0.40;0.38;;;;;;;5.76;100.00;103123.19;10423569;28;20052;-80
2022/11/26 21:40:44;;;;;;;1.15;1.00;;;;;;;5.77;100.00;103119.00;10435959;28;20102;-80
2022/11/26 21:45:46;;;;;;;0.00;0.00;;;;;;;5.75;100.00;103077.03;10430314;28;20131;-80
2022/11/26 21:50:47;;;;;;;1.02;0.50;;;;;;;5.71;100.00;103058.88;10466986;28;20049;-79
2022/11/26 21:56:58;;;;;;;0.25;0.25;;;;;;;5.64;100.00;103036.13;10442912;28;20067;-80
2022/11/26 22:01:59;;;;;;;0.75;0.57;;;;;;;5.52;100.00;103023.25;10462997;28;20049;-80
2022/11/26 22:07:21;;;;;;;0.40;0.28;;;;;;;5.45;100.00;103009.88;10454859;28;20120;-80
2022/11/26 22:12:22;;;;;;;0.17;0.15;;;;;;;5.37;100.00;103002.47;10491035;28;20063;-79
2022/11/26 22:17:25;;;;;;;0.55;0.43;;;;;;;5.22;100.00;102999.56;10467162;28;20053;-78
2022/11/26 22:22:26;;;;;;;0.50;0.47;;;;;;;4.97;100.00;102991.53;10427633;28;20045;-78
2022/11/26 22:27:28;;;;;;;0.15;0.15;;;;;;;5.00;100.00;103001.13;10445484;28;20045;-78
2022/11/26 22:32:30;;;;;;;0.98;0.77;;;;;;;4.93;100.00;102999.72;10445257;28;20045;-79
2022/11/26 22:37:32;;;;;;;2.33;1.65;;;;;;;4.82;100.00;102991.19;10428885;28;20106;-79
2022/11/26 22:42:34;;;;;;;0.55;0.40;;;;;;;4.82;100.00;102988.63;10445006;28;20052;-79
2022/11/26 22:47:36;;;;;;;0.13;0.13;;;;;;;4.67;100.00;102987.34;10462473;28;20451;-79
2022/11/26 22:52:37;;;;;;;1.73;1.25;;;;;;;4.74;100.00;102992.19;10427863;28;20049;-80
2022/11/26 22:57:39;;;;;;;1.98;0.65;;;;;;;4.62;100.00;102981.84;10442831;28;20045;-80
2022/11/26 23:02:40;;;;;;;0.52;0.35;;;;;;;4.63;100.00;102986.19;10443935;28;20041;-79
2022/11/26 23:07:42;;;;;;;16.38;0.93;;;;;;;4.68;100.00;102974.69;10460307;28;20463;-80
2022/11/26 23:12:44;;;;;;;8.35;0.93;;;;;;;4.58;100.00;102964.47;10443242;28;20488;-80
2022/11/26 23:17:46;;;;;;;0.10;0.10;;;;;;;4.64;100.00;102970.13;10443306;28;20045;-80
2022/11/26 23:22:48;;;;;;;0.32;0.32;;;;;;;4.50;100.00;102957.88;10443364;28;20068;-80
2022/11/26 23:27:49;;;;;;;0.30;0.25;;;;;;;4.50;100.00;102956.19;10444545;28;20087;-79
2022/11/26 23:32:51;;;;;;;0.30;0.30;;;;;;;4.61;100.00;102951.97;10426111;28;20045;-79
2022/11/26 23:37:53;;;;;;;0.22;0.22;;;;;;;4.48;100.00;102951.72;10433485;28;20095;-79
2022/11/26 23:42:54;;;;;;;0.35;0.35;;;;;;;4.49;100.00;102938.22;10428126;28;20471;-79